createdAt,value
2019-02-10T00:00:52.863Z,987.16
2019-02-10T00:01:52.857Z,987.12
2019-02-10T00:02:52.853Z,987.14
2019-02-10T00:03:52.857Z,987.13
2019-02-10T00:04:52.849Z,987.16
2019-02-10T00:05:52.822Z,987.14
2019-02-10T00:06:52.830Z,986.99
2019-02-10T00:07:52.811Z,987.01
2019-02-10T00:08:52.799Z,986.98
2019-02-10T00:09:52.793Z,986.94
2019-02-10T00:10:52.783Z,986.97
2019-02-10T00:11:52.777Z,986.98
2019-02-10T00:12:52.766Z,987
2019-02-10T00:13:52.778Z,987
2019-02-10T00:14:52.767Z,987.06
2019-02-10T00:15:52.740Z,986.97
2019-02-10T00:16:52.735Z,987
2019-02-10T00:17:52.726Z,987
2019-02-10T00:18:52.717Z,986.99
2019-02-10T00:19:52.707Z,986.92
2019-02-10T00:20:52.700Z,986.91
2019-02-10T00:21:52.697Z,986.89
2019-02-10T00:22:52.683Z,986.88
2019-02-10T00:23:52.676Z,986.84
2019-02-10T00:24:52.668Z,986.84
2019-02-10T00:25:52.657Z,986.82
2019-02-10T00:26:52.651Z,986.81
2019-02-10T00:27:52.639Z,986.75
2019-02-10T00:28:52.630Z,986.77
2019-02-10T00:29:52.632Z,986.74
2019-02-10T00:30:52.613Z,986.66
2019-02-10T00:31:52.609Z,986.73
2019-02-10T00:32:52.596Z,986.65
2019-02-10T00:33:52.586Z,986.69
2019-02-10T00:34:52.580Z,986.64
2019-02-10T00:35:52.577Z,986.61
2019-02-10T00:36:52.565Z,986.66
2019-02-10T00:37:52.566Z,986.65
2019-02-10T00:38:52.552Z,986.6
2019-02-10T00:39:52.535Z,986.56
2019-02-10T00:40:52.525Z,986.56
2019-02-10T00:41:52.517Z,986.51
2019-02-10T00:42:52.510Z,986.51
2019-02-10T00:43:52.502Z,986.5
2019-02-10T00:44:52.519Z,986.44
2019-02-10T00:45:52.495Z,986.39
2019-02-10T00:46:52.475Z,986.41
2019-02-10T00:47:52.462Z,986.36
2019-02-10T00:48:52.460Z,986.31
2019-02-10T00:49:52.453Z,986.35
2019-02-10T00:50:52.440Z,986.39
2019-02-10T00:51:52.435Z,986.42
2019-02-10T00:52:52.426Z,986.43
2019-02-10T00:53:52.414Z,986.46
2019-02-10T00:54:52.404Z,986.5
2019-02-10T00:55:52.395Z,986.48
2019-02-10T00:56:52.392Z,986.45
2019-02-10T00:57:52.381Z,986.43
2019-02-10T00:58:52.372Z,986.4
2019-02-10T00:59:52.367Z,986.31
2019-02-10T01:00:52.355Z,986.34
2019-02-10T01:01:52.348Z,986.31
2019-02-10T01:02:52.347Z,986.27
2019-02-10T01:03:52.338Z,986.27
2019-02-10T01:04:52.323Z,986.18
2019-02-10T01:05:52.315Z,986.18
2019-02-10T01:06:52.306Z,986.15
2019-02-10T01:07:52.301Z,986.21
2019-02-10T01:08:52.299Z,986.21
2019-02-10T01:09:52.326Z,986.22
2019-02-10T01:10:52.278Z,986.18
2019-02-10T01:11:52.278Z,986.21
2019-02-10T01:12:52.259Z,986.24
2019-02-10T01:13:52.258Z,986.24
2019-02-10T01:14:52.245Z,986.25
2019-02-10T01:15:52.232Z,986.27
2019-02-10T01:16:52.223Z,986.32
2019-02-10T01:17:52.221Z,986.33
2019-02-10T01:18:52.206Z,986.3
2019-02-10T01:19:52.199Z,986.27
2019-02-10T01:20:52.189Z,986.27
2019-02-10T01:21:52.189Z,986.29
2019-02-10T01:22:52.174Z,986.25
2019-02-10T01:23:52.169Z,986.28
2019-02-10T01:24:52.156Z,986.18
2019-02-10T01:25:52.150Z,986.22
2019-02-10T01:26:52.139Z,986.18
2019-02-10T01:27:52.136Z,986.15
2019-02-10T01:28:52.121Z,986.14
2019-02-10T01:29:52.114Z,986.12
2019-02-10T01:30:52.127Z,986.12
2019-02-10T01:31:52.104Z,986.09
2019-02-10T01:32:52.094Z,986.05
2019-02-10T01:33:52.081Z,986.04
2019-02-10T01:34:52.072Z,986.01
2019-02-10T01:35:52.065Z,986.07
2019-02-10T01:36:52.056Z,985.96
2019-02-10T01:37:52.051Z,985.96
2019-02-10T01:38:52.045Z,985.9
2019-02-10T01:39:52.040Z,985.88
2019-02-10T01:40:52.042Z,985.89
2019-02-10T01:41:52.017Z,985.82
2019-02-10T01:42:52.007Z,985.79
2019-02-10T01:43:51.995Z,985.88
2019-02-10T01:44:51.993Z,985.85
2019-02-10T01:45:52.006Z,985.82
2019-02-10T01:46:51.970Z,985.8
2019-02-10T01:47:51.978Z,985.73
2019-02-10T01:48:51.958Z,985.8
2019-02-10T01:49:51.966Z,985.69
2019-02-10T01:50:52.125Z,985.68
2019-02-10T01:51:51.933Z,985.7
2019-02-10T01:52:51.922Z,985.67
2019-02-10T01:53:51.912Z,985.65
2019-02-10T01:54:51.904Z,985.61
2019-02-10T01:55:51.898Z,985.65
2019-02-10T01:56:51.887Z,985.61
2019-02-10T01:57:51.882Z,985.5
2019-02-10T01:58:51.871Z,985.48
2019-02-10T01:59:51.864Z,985.48
2019-02-10T02:00:51.854Z,985.47
2019-02-10T02:01:51.847Z,985.41
2019-02-10T02:02:51.839Z,985.4
2019-02-10T02:03:51.829Z,985.37
2019-02-10T02:04:51.819Z,985.38
2019-02-10T02:05:51.829Z,985.34
2019-02-10T02:06:57.624Z,985.29
2019-02-10T02:07:51.794Z,985.23
2019-02-10T02:08:51.823Z,985.17
2019-02-10T02:09:51.780Z,985.22
2019-02-10T02:10:51.769Z,985.17
2019-02-10T02:11:51.761Z,985.16
2019-02-10T02:12:51.757Z,985.06
2019-02-10T02:13:51.765Z,985.04
2019-02-10T02:14:51.744Z,985.09
2019-02-10T02:15:51.730Z,985.03
2019-02-10T02:16:51.723Z,985.03
2019-02-10T02:17:51.716Z,985.02
2019-02-10T02:18:51.705Z,984.92
2019-02-10T02:19:51.705Z,984.91
2019-02-10T02:20:51.686Z,984.84
2019-02-10T02:21:51.680Z,984.79
2019-02-10T02:22:51.669Z,984.77
2019-02-10T02:23:51.661Z,984.75
2019-02-10T02:24:51.652Z,984.65
2019-02-10T02:25:51.645Z,984.62
2019-02-10T02:26:51.631Z,984.63
2019-02-10T02:27:51.640Z,984.6
2019-02-10T02:28:51.615Z,984.59
2019-02-10T02:29:51.622Z,984.6
2019-02-10T02:30:51.594Z,984.6
2019-02-10T02:31:51.591Z,984.64
2019-02-10T02:32:51.578Z,984.6
2019-02-10T02:33:51.579Z,984.56
2019-02-10T02:34:51.561Z,984.57
2019-02-10T02:35:51.560Z,984.51
2019-02-10T02:36:51.571Z,984.5
2019-02-10T02:37:51.533Z,984.49
2019-02-10T02:38:51.534Z,984.46
2019-02-10T02:39:51.518Z,984.42
2019-02-10T02:40:51.510Z,984.41
2019-02-10T02:41:51.506Z,984.36
2019-02-10T02:42:51.490Z,984.36
2019-02-10T02:43:51.486Z,984.34
2019-02-10T02:44:51.482Z,984.27
2019-02-10T02:45:51.471Z,984.3
2019-02-10T02:46:51.454Z,984.32
2019-02-10T02:47:51.445Z,984.27
2019-02-10T02:48:51.434Z,984.25
2019-02-10T02:49:51.430Z,984.24
2019-02-10T02:50:51.415Z,984.21
2019-02-10T02:51:51.409Z,984.21
2019-02-10T02:52:51.399Z,984.17
2019-02-10T02:53:51.389Z,984.17
2019-02-10T02:54:51.387Z,984.15
2019-02-10T02:55:51.378Z,984.06
2019-02-10T02:56:51.367Z,984.04
2019-02-10T02:57:51.353Z,984.04
2019-02-10T02:58:51.348Z,984.08
2019-02-10T02:59:51.337Z,984.03
2019-02-10T03:00:51.328Z,984.03
2019-02-10T03:01:51.331Z,983.95
2019-02-10T03:02:51.335Z,983.97
2019-02-10T03:03:51.309Z,983.92
2019-02-10T03:04:51.295Z,983.91
2019-02-10T03:05:51.299Z,983.83
2019-02-10T03:06:51.297Z,983.8
2019-02-10T03:07:51.269Z,983.79
2019-02-10T03:08:51.268Z,983.72
2019-02-10T03:09:51.255Z,983.7
2019-02-10T03:10:51.250Z,983.71
2019-02-10T03:11:51.248Z,983.68
2019-02-10T03:12:51.245Z,983.67
2019-02-10T03:13:51.218Z,983.67
2019-02-10T03:14:51.208Z,983.66
2019-02-10T03:15:51.204Z,983.61
2019-02-10T03:16:51.193Z,983.52
2019-02-10T03:17:51.186Z,983.52
2019-02-10T03:18:53.094Z,983.5
2019-02-10T03:19:51.173Z,983.49
2019-02-10T03:20:51.160Z,983.47
2019-02-10T03:21:51.155Z,983.44
2019-02-10T03:22:51.140Z,983.38
2019-02-10T03:23:51.131Z,983.39
2019-02-10T03:24:51.130Z,983.3
2019-02-10T03:25:51.115Z,983.31
2019-02-10T03:26:51.107Z,983.3
2019-02-10T03:27:51.097Z,983.23
2019-02-10T03:28:51.086Z,983.21
2019-02-10T03:29:51.081Z,983.16
2019-02-10T03:30:51.078Z,983.15
2019-02-10T03:31:51.073Z,983.12
2019-02-10T03:32:51.062Z,983.08
2019-02-10T03:33:51.046Z,983.11
2019-02-10T03:34:51.039Z,983.05
2019-02-10T03:35:51.030Z,983.04
2019-02-10T03:36:51.019Z,982.99
2019-02-10T03:37:51.070Z,982.91
2019-02-10T03:38:51.081Z,982.86
2019-02-10T03:39:50.995Z,982.86
2019-02-10T03:40:50.985Z,982.87
2019-02-10T03:41:50.977Z,982.83
2019-02-10T03:42:50.971Z,982.76
2019-02-10T03:43:50.965Z,982.75
2019-02-10T03:44:50.957Z,982.68
2019-02-10T03:45:50.943Z,982.7
2019-02-10T03:46:50.939Z,982.62
2019-02-10T03:47:50.933Z,982.65
2019-02-10T03:48:50.920Z,982.66
2019-02-10T03:49:50.912Z,982.65
2019-02-10T03:50:50.903Z,982.58
2019-02-10T03:51:50.902Z,982.48
2019-02-10T03:52:50.891Z,982.54
2019-02-10T03:53:50.881Z,982.5
2019-02-10T03:54:50.870Z,982.42
2019-02-10T03:55:50.866Z,982.45
2019-02-10T03:56:50.874Z,982.41
2019-02-10T03:57:50.847Z,982.47
2019-02-10T03:58:50.838Z,982.39
2019-02-10T03:59:50.839Z,982.35
2019-02-10T04:00:50.821Z,982.35
2019-02-10T04:01:50.818Z,982.37
2019-02-10T04:02:50.814Z,982.35
2019-02-10T04:03:50.796Z,982.34
2019-02-10T04:04:50.789Z,982.25
2019-02-10T04:05:50.774Z,982.3
2019-02-10T04:06:50.770Z,982.4
2019-02-10T04:07:50.771Z,982.35
2019-02-10T04:08:50.754Z,982.29
2019-02-10T04:09:50.742Z,982.35
2019-02-10T04:10:50.732Z,982.43
2019-02-10T04:11:50.724Z,982.44
2019-02-10T04:12:50.714Z,982.39
2019-02-10T04:13:50.715Z,982.39
2019-02-10T04:14:50.699Z,982.42
2019-02-10T04:15:50.691Z,982.3
2019-02-10T04:16:50.679Z,982.31
2019-02-10T04:17:50.672Z,982.26
2019-02-10T04:18:50.662Z,982.2
2019-02-10T04:19:50.656Z,982.26
2019-02-10T04:20:50.647Z,982.2
2019-02-10T04:21:50.651Z,982.11
2019-02-10T04:22:50.630Z,982.13
2019-02-10T04:23:50.622Z,982.16
2019-02-10T04:24:50.614Z,982.11
2019-02-10T04:25:50.618Z,982.09
2019-02-10T04:26:50.598Z,982.04
2019-02-10T04:27:50.592Z,982.01
2019-02-10T04:28:50.583Z,981.9
2019-02-10T04:29:50.576Z,981.88
2019-02-10T04:30:50.575Z,981.82
2019-02-10T04:31:50.570Z,981.76
2019-02-10T04:32:50.554Z,981.67
2019-02-10T04:33:50.549Z,981.63
2019-02-10T04:34:50.547Z,981.58
2019-02-10T04:35:50.530Z,981.66
2019-02-10T04:36:50.520Z,981.61
2019-02-10T04:37:50.515Z,981.58
2019-02-10T04:38:50.506Z,981.57
2019-02-10T04:39:50.500Z,981.63
2019-02-10T04:40:50.494Z,981.61
2019-02-10T04:41:50.490Z,981.56
2019-02-10T04:42:50.476Z,981.59
2019-02-10T04:43:50.466Z,981.6
2019-02-10T04:44:50.498Z,981.59
2019-02-10T04:45:50.451Z,981.62
2019-02-10T04:46:50.442Z,981.52
2019-02-10T04:47:50.439Z,981.53
2019-02-10T04:48:50.427Z,981.49
2019-02-10T04:49:50.419Z,981.53
2019-02-10T04:50:50.419Z,981.55
2019-02-10T04:51:50.415Z,981.53
2019-02-10T04:52:50.415Z,981.5
2019-02-10T04:53:50.389Z,981.54
2019-02-10T04:54:50.383Z,981.58
2019-02-10T04:55:50.374Z,981.55
2019-02-10T04:56:50.363Z,981.59
2019-02-10T04:57:50.356Z,981.59
2019-02-10T04:58:50.363Z,981.51
2019-02-10T04:59:50.361Z,981.52
2019-02-10T05:00:50.334Z,981.52
2019-02-10T05:01:50.325Z,981.47
2019-02-10T05:02:50.322Z,981.49
2019-02-10T05:03:50.310Z,981.44
2019-02-10T05:04:50.307Z,981.38
2019-02-10T05:05:50.306Z,981.39
2019-02-10T05:06:50.289Z,981.32
2019-02-10T05:07:54.371Z,981.3
2019-02-10T05:08:50.272Z,981.23
2019-02-10T05:09:50.268Z,981.15
2019-02-10T05:10:50.259Z,981.1
2019-02-10T05:11:50.250Z,981.14
2019-02-10T05:12:50.242Z,981.08
2019-02-10T05:13:50.251Z,981
2019-02-10T05:14:50.226Z,980.97
2019-02-10T05:15:50.221Z,980.99
2019-02-10T05:16:50.213Z,980.94
2019-02-10T05:17:50.207Z,980.92
2019-02-10T05:18:50.198Z,980.92
2019-02-10T05:19:50.192Z,980.94
2019-02-10T05:20:50.182Z,980.93
2019-02-10T05:21:50.182Z,980.82
2019-02-10T05:22:50.178Z,980.91
2019-02-10T05:23:50.173Z,980.92
2019-02-10T05:24:50.158Z,980.91
2019-02-10T05:25:50.148Z,980.83
2019-02-10T05:26:50.171Z,980.79
2019-02-10T05:27:50.133Z,980.83
2019-02-10T05:28:50.128Z,980.78
2019-02-10T05:29:50.122Z,980.81
2019-02-10T05:30:50.110Z,980.81
2019-02-10T05:31:50.103Z,980.82
2019-02-10T05:32:50.104Z,980.82
2019-02-10T05:33:50.097Z,980.78
2019-02-10T05:34:50.082Z,980.78
2019-02-10T05:35:50.077Z,980.73
2019-02-10T05:36:50.066Z,980.69
2019-02-10T05:37:50.059Z,980.72
2019-02-10T05:38:50.054Z,980.71
2019-02-10T05:39:50.048Z,980.74
2019-02-10T05:40:50.040Z,980.71
2019-02-10T05:41:50.031Z,980.71
2019-02-10T05:42:50.038Z,980.65
2019-02-10T05:43:50.014Z,980.59
2019-02-10T05:44:50.007Z,980.55
2019-02-10T05:45:50.002Z,980.48
2019-02-10T05:46:49.992Z,980.49
2019-02-10T05:47:49.984Z,980.47
2019-02-10T05:48:49.977Z,980.5
2019-02-10T05:49:49.970Z,980.52
2019-02-10T05:50:49.960Z,980.44
2019-02-10T05:51:49.958Z,980.52
2019-02-10T05:52:49.960Z,980.42
2019-02-10T05:53:49.946Z,980.46
2019-02-10T05:54:49.927Z,980.41
2019-02-10T05:55:49.926Z,980.36
2019-02-10T05:56:49.908Z,980.36
2019-02-10T05:57:49.904Z,980.33
2019-02-10T05:58:49.892Z,980.33
2019-02-10T05:59:49.890Z,980.32
2019-02-10T06:00:49.917Z,980.3
2019-02-10T06:01:49.868Z,980.3
2019-02-10T06:02:49.894Z,980.36
2019-02-10T06:03:49.859Z,980.29
2019-02-10T06:04:49.848Z,980.25
2019-02-10T06:05:49.849Z,980.27
2019-02-10T06:06:49.831Z,980.27
2019-02-10T06:07:49.823Z,980.26
2019-02-10T06:08:49.817Z,980.18
2019-02-10T06:09:49.808Z,980.18
2019-02-10T06:10:49.800Z,980.15
2019-02-10T06:11:49.794Z,980.11
2019-02-10T06:12:49.790Z,980.07
2019-02-10T06:13:49.784Z,980.07
2019-02-10T06:14:49.791Z,980.05
2019-02-10T06:15:49.771Z,980.04
2019-02-10T06:16:49.769Z,979.95
2019-02-10T06:17:49.750Z,979.98
2019-02-10T06:18:49.763Z,979.88
2019-02-10T06:19:49.737Z,979.87
2019-02-10T06:20:49.734Z,979.88
2019-02-10T06:21:49.726Z,979.9
2019-02-10T06:22:49.714Z,979.78
2019-02-10T06:23:49.725Z,979.8
2019-02-10T06:24:49.700Z,979.76
2019-02-10T06:25:49.695Z,979.8
2019-02-10T06:26:49.687Z,979.82
2019-02-10T06:27:49.691Z,979.82
2019-02-10T06:28:49.680Z,979.76
2019-02-10T06:29:49.675Z,979.78
2019-02-10T06:30:49.660Z,979.76
2019-02-10T06:31:49.653Z,979.72
2019-02-10T06:32:49.641Z,979.68
2019-02-10T06:33:49.644Z,979.78
2019-02-10T06:34:49.627Z,979.75
2019-02-10T06:35:49.620Z,979.7
2019-02-10T06:36:49.613Z,979.74
2019-02-10T06:37:49.609Z,979.68
2019-02-10T06:38:49.595Z,979.72
2019-02-10T06:39:49.589Z,979.67
2019-02-10T06:40:49.581Z,979.64
2019-02-10T06:41:49.572Z,979.65
2019-02-10T06:42:49.562Z,979.73
2019-02-10T06:43:49.565Z,979.75
2019-02-10T06:44:49.552Z,979.58
2019-02-10T06:45:49.542Z,979.58
2019-02-10T06:46:49.540Z,979.74
2019-02-10T06:47:49.536Z,979.84
2019-02-10T06:48:49.523Z,979.83
2019-02-10T06:49:49.511Z,979.81
2019-02-10T06:50:49.504Z,979.88
2019-02-10T06:51:49.501Z,979.86
2019-02-10T06:52:49.490Z,979.86
2019-02-10T06:53:49.483Z,979.82
2019-02-10T06:54:49.477Z,979.8
2019-02-10T06:55:49.466Z,979.86
2019-02-10T06:56:49.474Z,979.81
2019-02-10T06:57:49.466Z,979.77
2019-02-10T06:58:49.449Z,979.78
2019-02-10T06:59:49.450Z,979.74
2019-02-10T07:00:49.430Z,979.72
2019-02-10T07:01:49.421Z,979.72
2019-02-10T07:02:49.420Z,979.63
2019-02-10T07:03:49.412Z,979.58
2019-02-10T07:04:49.410Z,979.6
2019-02-10T07:05:49.414Z,979.57
2019-02-10T07:06:49.389Z,979.54
2019-02-10T07:07:49.393Z,979.46
2019-02-10T07:08:49.384Z,979.42
2019-02-10T07:09:49.372Z,979.39
2019-02-10T07:10:49.364Z,979.38
2019-02-10T07:11:49.359Z,979.33
2019-02-10T07:12:49.355Z,979.27
2019-02-10T07:13:49.339Z,979.32
2019-02-10T07:14:49.333Z,979.32
2019-02-10T07:15:49.327Z,979.27
2019-02-10T07:16:49.317Z,979.21
2019-02-10T07:17:49.312Z,979.19
2019-02-10T07:18:49.306Z,979.22
2019-02-10T07:19:49.301Z,979.18
2019-02-10T07:20:49.305Z,979.24
2019-02-10T07:21:49.289Z,979.26
2019-02-10T07:22:49.278Z,979.27
2019-02-10T07:23:49.281Z,979.25
2019-02-10T07:24:49.267Z,979.24
2019-02-10T07:25:49.261Z,979.25
2019-02-10T07:26:49.253Z,979.21
2019-02-10T07:27:49.247Z,979.18
2019-02-10T07:28:49.248Z,979.13
2019-02-10T07:29:49.234Z,979.13
2019-02-10T07:30:49.230Z,979.09
2019-02-10T07:31:49.228Z,979
2019-02-10T07:32:49.213Z,979
2019-02-10T07:33:49.205Z,978.91
2019-02-10T07:34:49.197Z,978.91
2019-02-10T07:35:49.197Z,978.84
2019-02-10T07:36:49.183Z,978.84
2019-02-10T07:37:49.181Z,978.75
2019-02-10T07:38:49.168Z,978.76
2019-02-10T07:39:49.170Z,978.68
2019-02-10T07:40:49.156Z,978.7
2019-02-10T07:41:49.150Z,978.63
2019-02-10T07:42:49.153Z,978.6
2019-02-10T07:43:49.138Z,978.54
2019-02-10T07:44:49.140Z,978.43
2019-02-10T07:45:49.120Z,978.41
2019-02-10T07:46:49.133Z,978.36
2019-02-10T07:47:49.114Z,978.31
2019-02-10T07:48:49.103Z,978.31
2019-02-10T07:49:49.095Z,978.28
2019-02-10T07:50:49.090Z,978.24
2019-02-10T07:51:49.082Z,978.23
2019-02-10T07:52:49.076Z,978.16
2019-02-10T07:53:49.084Z,978.16
2019-02-10T07:54:49.062Z,978.16
2019-02-10T07:55:49.056Z,978.08
2019-02-10T07:56:49.049Z,978.12
2019-02-10T07:57:49.049Z,978.14
2019-02-10T07:58:49.036Z,978.12
2019-02-10T07:59:49.032Z,978.08
2019-02-10T08:00:49.024Z,978.04
2019-02-10T08:01:49.033Z,978.06
2019-02-10T08:02:49.011Z,977.99
2019-02-10T08:03:49.008Z,978
2019-02-10T08:04:48.997Z,977.98
2019-02-10T08:05:49.002Z,978
2019-02-10T08:06:48.989Z,977.99
2019-02-10T08:07:48.978Z,977.91
2019-02-10T08:08:48.974Z,977.84
2019-02-10T08:09:48.972Z,977.78
2019-02-10T08:10:48.961Z,977.82
2019-02-10T08:11:48.959Z,977.8
2019-02-10T08:12:48.947Z,977.77
2019-02-10T08:13:48.940Z,977.81
2019-02-10T08:14:48.935Z,977.78
2019-02-10T08:15:48.930Z,977.7
2019-02-10T08:16:48.936Z,977.65
2019-02-10T08:17:48.919Z,977.63
2019-02-10T08:18:48.910Z,977.64
2019-02-10T08:19:48.901Z,977.59
2019-02-10T08:20:48.895Z,977.62
2019-02-10T08:21:48.889Z,977.62
2019-02-10T08:22:48.883Z,977.54
2019-02-10T08:23:48.877Z,977.48
2019-02-10T08:24:48.875Z,977.38
2019-02-10T08:25:48.867Z,977.39
2019-02-10T08:26:48.856Z,977.4
2019-02-10T08:27:48.850Z,977.4
2019-02-10T08:28:48.856Z,977.39
2019-02-10T08:29:48.842Z,977.36
2019-02-10T08:30:48.831Z,977.38
2019-02-10T08:31:48.827Z,977.31
2019-02-10T08:32:48.817Z,977.37
2019-02-10T08:33:48.813Z,977.31
2019-02-10T08:34:48.808Z,977.25
2019-02-10T08:35:48.801Z,977.25
2019-02-10T08:36:49.595Z,977.24
2019-02-10T08:37:48.798Z,977.25
2019-02-10T08:38:54.364Z,977.27
2019-02-10T08:39:48.777Z,977.19
2019-02-10T08:40:48.772Z,977.22
2019-02-10T08:41:48.780Z,977.24
2019-02-10T08:42:48.775Z,977.17
2019-02-10T08:43:48.754Z,977.03
2019-02-10T08:44:48.752Z,977.02
2019-02-10T08:45:48.746Z,977.01
2019-02-10T08:46:48.739Z,976.95
2019-02-10T08:47:48.735Z,976.96
2019-02-10T08:48:48.732Z,976.97
2019-02-10T08:49:48.726Z,977
2019-02-10T08:50:48.720Z,976.97
2019-02-10T08:51:48.714Z,976.98
2019-02-10T08:52:51.827Z,976.93
2019-02-10T08:53:48.702Z,976.97
2019-02-10T08:54:48.698Z,976.94
2019-02-10T08:55:48.694Z,976.9
2019-02-10T08:56:48.687Z,976.88
2019-02-10T08:57:48.682Z,976.87
2019-02-10T08:58:48.678Z,976.89
2019-02-10T08:59:48.670Z,976.9
2019-02-10T09:00:48.670Z,976.9
2019-02-10T09:01:48.669Z,976.92
2019-02-10T09:02:48.656Z,976.91
2019-02-10T09:03:48.649Z,976.93
2019-02-10T09:04:48.652Z,976.95
2019-02-10T09:05:48.643Z,976.93
2019-02-10T09:06:48.635Z,976.98
2019-02-10T09:07:48.633Z,976.94
2019-02-10T09:08:48.627Z,976.88
2019-02-10T09:09:48.621Z,976.78
2019-02-10T09:10:48.616Z,976.76
2019-02-10T09:11:48.616Z,976.72
2019-02-10T09:12:48.615Z,976.69
2019-02-10T09:13:48.599Z,976.62
2019-02-10T09:14:48.592Z,976.65
2019-02-10T09:15:48.590Z,976.52
2019-02-10T09:16:48.607Z,976.5
2019-02-10T09:17:48.592Z,976.48
2019-02-10T09:18:48.577Z,976.38
2019-02-10T09:19:48.571Z,976.39
2019-02-10T09:20:48.565Z,976.33
2019-02-10T09:21:48.563Z,976.25
2019-02-10T09:22:48.554Z,976.27
2019-02-10T09:23:48.552Z,976.29
2019-02-10T09:24:48.555Z,976.18
2019-02-10T09:25:48.542Z,976.12
2019-02-10T09:26:48.542Z,976.12
2019-02-10T09:27:48.541Z,976.06
2019-02-10T09:28:48.548Z,976.08
2019-02-10T09:29:48.525Z,976.03
2019-02-10T09:30:48.519Z,976.08
2019-02-10T09:31:48.523Z,976.03
2019-02-10T09:32:48.512Z,976.05
2019-02-10T09:33:48.508Z,976.03
2019-02-10T09:34:48.506Z,976.01
2019-02-10T09:35:48.499Z,976
2019-02-10T09:36:48.502Z,975.95
2019-02-10T09:37:48.495Z,976.04
2019-02-10T09:38:48.492Z,975.97
2019-02-10T09:39:48.489Z,975.95
2019-02-10T09:40:48.487Z,975.92
2019-02-10T09:41:48.494Z,975.87
2019-02-10T09:42:48.475Z,975.84
2019-02-10T09:43:48.477Z,975.81
2019-02-10T09:44:48.470Z,975.73
2019-02-10T09:45:48.462Z,975.73
2019-02-10T09:46:48.459Z,975.7
2019-02-10T09:47:48.454Z,975.68
2019-02-10T09:48:48.454Z,975.66
2019-02-10T09:49:48.450Z,975.67
2019-02-10T09:50:48.444Z,975.66
2019-02-10T09:51:48.443Z,975.68
2019-02-10T09:52:48.440Z,975.69
2019-02-10T09:53:48.433Z,975.62
2019-02-10T09:54:48.432Z,975.62
2019-02-10T09:55:48.431Z,975.63
2019-02-10T09:56:48.424Z,975.59
2019-02-10T09:57:48.419Z,975.56
2019-02-10T09:58:48.422Z,975.5
2019-02-10T09:59:48.412Z,975.47
2019-02-10T10:00:48.411Z,975.48
2019-02-10T10:01:48.410Z,975.48
2019-02-10T10:02:48.410Z,975.37
2019-02-10T10:03:48.403Z,975.32
2019-02-10T10:04:48.398Z,975.34
2019-02-10T10:05:48.393Z,975.22
2019-02-10T10:06:48.394Z,975.2
2019-02-10T10:07:48.387Z,975.19
2019-02-10T10:08:48.386Z,975.18
2019-02-10T10:09:48.382Z,975.15
2019-02-10T10:10:48.383Z,975.17
2019-02-10T10:11:48.378Z,975.16
2019-02-10T10:12:48.373Z,975.22
2019-02-10T10:13:48.377Z,975.2
2019-02-10T10:14:48.368Z,975.21
2019-02-10T10:15:48.364Z,975.15
2019-02-10T10:16:48.369Z,975.12
2019-02-10T10:17:48.361Z,975.12
2019-02-10T10:18:48.362Z,975.08
2019-02-10T10:19:48.368Z,975.07
2019-02-10T10:20:48.365Z,975.08
2019-02-10T10:21:48.359Z,975
2019-02-10T10:22:48.348Z,974.96
2019-02-10T10:23:48.353Z,974.88
2019-02-10T10:24:50.448Z,974.83
2019-02-10T10:25:48.340Z,974.84
2019-02-10T10:26:48.358Z,974.87
2019-02-10T10:27:48.339Z,974.85
2019-02-10T10:28:48.341Z,974.86
2019-02-10T10:29:48.334Z,974.86
2019-02-10T10:30:48.333Z,974.82
2019-02-10T10:31:48.328Z,974.77
2019-02-10T10:32:48.325Z,974.74
2019-02-10T10:33:48.327Z,974.8
2019-02-10T10:34:48.327Z,974.71
2019-02-10T10:35:48.323Z,974.68
2019-02-10T10:36:48.323Z,974.72
2019-02-10T10:37:48.320Z,974.71
2019-02-10T10:38:48.319Z,974.68
2019-02-10T10:39:48.319Z,974.62
2019-02-10T10:40:48.313Z,974.61
2019-02-10T10:41:48.313Z,974.63
2019-02-10T10:42:48.313Z,974.61
2019-02-10T10:43:48.314Z,974.48
2019-02-10T10:44:48.315Z,974.65
2019-02-10T10:45:48.312Z,974.63
2019-02-10T10:46:48.319Z,974.5
2019-02-10T10:47:48.304Z,974.6
2019-02-10T10:48:48.309Z,974.58
2019-02-10T10:49:48.301Z,974.53
2019-02-10T10:50:48.297Z,974.4
2019-02-10T10:51:48.297Z,974.46
2019-02-10T10:52:48.295Z,974.44
2019-02-10T10:53:48.295Z,974.42
2019-02-10T10:54:48.292Z,974.41
2019-02-10T10:55:48.289Z,974.32
2019-02-10T10:56:48.290Z,974.17
2019-02-10T10:57:48.287Z,974.23
2019-02-10T10:58:48.285Z,974.32
2019-02-10T10:59:48.285Z,974.14
2019-02-10T11:00:48.282Z,974.26
2019-02-10T11:01:48.280Z,974.07
2019-02-10T11:02:48.280Z,974.07
2019-02-10T11:03:48.277Z,974.12
2019-02-10T11:04:48.284Z,974.08
2019-02-10T11:05:48.277Z,974.15
2019-02-10T11:06:48.280Z,973.95
2019-02-10T11:07:48.274Z,973.98
2019-02-10T11:08:48.272Z,973.98
2019-02-10T11:09:48.279Z,973.92
2019-02-10T11:10:48.277Z,973.88
2019-02-10T11:11:48.270Z,973.91
2019-02-10T11:12:48.279Z,973.91
2019-02-10T11:13:48.267Z,973.8
2019-02-10T11:14:48.269Z,973.86
2019-02-10T11:15:48.263Z,973.81
2019-02-10T11:16:48.263Z,973.81
2019-02-10T11:17:48.259Z,973.74
2019-02-10T11:18:48.265Z,973.75
2019-02-10T11:19:48.265Z,973.63
2019-02-10T11:20:48.258Z,973.71
2019-02-10T11:21:48.255Z,973.71
2019-02-10T11:22:48.256Z,973.59
2019-02-10T11:23:48.251Z,973.65
2019-02-10T11:24:48.250Z,973.59
2019-02-10T11:25:48.250Z,973.6
2019-02-10T11:26:48.248Z,973.6
2019-02-10T11:27:48.253Z,973.55
2019-02-10T11:28:48.245Z,973.5
2019-02-10T11:29:48.253Z,973.46
2019-02-10T11:30:48.243Z,973.4
2019-02-10T11:31:48.245Z,973.39
2019-02-10T11:32:48.244Z,973.33
2019-02-10T11:33:48.244Z,973.33
2019-02-10T11:34:48.241Z,973.32
2019-02-10T11:35:48.243Z,973.26
2019-02-10T11:36:48.237Z,973.26
2019-02-10T11:37:48.248Z,973.27
2019-02-10T11:38:48.246Z,973.31
2019-02-10T11:39:48.240Z,973.22
2019-02-10T11:40:48.231Z,973.28
2019-02-10T11:41:48.231Z,973.31
2019-02-10T11:42:48.232Z,973.23
2019-02-10T11:43:48.232Z,973.3
2019-02-10T11:44:48.232Z,973.2
2019-02-10T11:45:48.232Z,973.27
2019-02-10T11:46:48.241Z,973.2
2019-02-10T11:47:48.227Z,973.14
2019-02-10T11:48:48.234Z,973.16
2019-02-10T11:49:48.223Z,973.06
2019-02-10T11:50:48.232Z,973.1
2019-02-10T11:51:48.224Z,973.1
2019-02-10T11:52:48.225Z,973.16
2019-02-10T11:53:48.224Z,973.22
2019-02-10T11:54:48.223Z,973.13
2019-02-10T11:55:48.219Z,973.1
2019-02-10T11:56:48.221Z,973.2
2019-02-10T11:57:48.218Z,972.97
2019-02-10T11:58:48.219Z,972.91
2019-02-10T11:59:48.219Z,972.96
2019-02-10T12:00:48.225Z,973.03
2019-02-10T12:01:48.216Z,973.08
2019-02-10T12:02:48.224Z,972.9
2019-02-10T12:03:48.213Z,972.84
2019-02-10T12:04:48.217Z,972.67
2019-02-10T12:05:48.218Z,972.71
2019-02-10T12:06:48.214Z,972.72
2019-02-10T12:07:48.266Z,972.65
2019-02-10T12:08:48.212Z,972.66
2019-02-10T12:09:51.605Z,972.67
2019-02-10T12:10:48.211Z,972.74
2019-02-10T12:11:48.211Z,972.74
2019-02-10T12:12:48.209Z,972.68
2019-02-10T12:13:48.213Z,972.52
2019-02-10T12:14:48.216Z,972.48
2019-02-10T12:15:48.212Z,972.53
2019-02-10T12:16:48.210Z,972.47
2019-02-10T12:17:48.215Z,972.49
2019-02-10T12:18:48.207Z,972.4
2019-02-10T12:19:48.206Z,972.44
2019-02-10T12:20:48.209Z,972.54
2019-02-10T12:21:48.215Z,972.29
2019-02-10T12:22:50.557Z,972.43
2019-02-10T12:23:48.205Z,972.45
2019-02-10T12:24:48.202Z,972.42
2019-02-10T12:25:48.214Z,972.41
2019-02-10T12:26:48.221Z,972.46
2019-02-10T12:27:48.201Z,972.34
2019-02-10T12:28:48.209Z,972.42
2019-02-10T12:29:48.200Z,972.42
2019-02-10T12:30:48.195Z,972.41
2019-02-10T12:31:48.193Z,972.34